Terminal Aerodrome Forecast
Issued by NWS

Home | Current Version | Previous Version | Text Only | Print | Product List | Glossary On
Versions: 1 2 3 4 5 6 7 8 9 10 11 12 13 14 15 16 17 18 19 20 21
233
FTUS43 KEAX 150346 AAA
TAFSTJ
TAF AMD
KSTJ 150346Z 1504/1524 17010KT 5SM -SHRA BR OVC005
      TEMPO 1504/1506 2SM -RA BR OVC004
     FM150600 19008KT 5SM -SHRA VCTS OVC008CB
      TEMPO 1506/1508 -TSRA
     FM150800 25006KT P6SM VCSH OVC005
     FM151000 33012G22KT P6SM OVC008
     FM151600 34012G25KT P6SM SKC
     FM152300 33010KT P6SM SKC=

USA.gov is the U.S. government's official web portal to all federal, state and local government web resources and services.